createdAt,value
2023-01-20T00:14:50.057Z,28
2023-01-20T00:43:56.351Z,25
2023-01-20T01:12:50.943Z,23
2023-01-20T01:41:50.013Z,22
2023-01-20T02:10:55.883Z,20
2023-01-20T02:39:53.535Z,23
2023-01-20T03:08:47.445Z,20
2023-01-20T03:38:03.782Z,20
2023-01-20T04:07:01.713Z,22
2023-01-20T04:36:01.475Z,22
2023-01-20T05:05:02.230Z,22
2023-01-20T05:34:04.604Z,23
2023-01-20T06:03:02.175Z,25
2023-01-20T06:31:50.710Z,30
2023-01-20T07:00:43.172Z,24
2023-01-20T07:29:39.197Z,24
2023-01-20T07:58:18.539Z,24
2023-01-20T08:27:30.951Z,23
2023-01-20T08:56:40.918Z,22
2023-01-20T09:25:35.093Z,23
2023-01-20T09:54:32.024Z,21
2023-01-20T10:23:41.800Z,22
2023-01-20T10:52:27.134Z,22
2023-01-20T11:21:31.251Z,22
2023-01-20T11:50:32.569Z,26
2023-01-20T12:19:23.748Z,28
2023-01-20T12:47:50.509Z,25
2023-01-20T13:16:37.304Z,23
2023-01-20T13:45:14.596Z,22
2023-01-20T14:13:42.349Z,21
2023-01-20T14:42:55.960Z,23
2023-01-20T15:11:43.629Z,23
2023-01-20T15:40:42.140Z,23
2023-01-20T16:09:35.655Z,25
2023-01-20T16:38:42.864Z,25
2023-01-20T17:07:47.005Z,31
2023-01-20T17:36:50.032Z,34
2023-01-20T18:05:49.908Z,31
2023-01-20T18:34:48.915Z,30
2023-01-20T19:03:48.884Z,31
2023-01-20T19:32:42.602Z,31
2023-01-20T20:01:36.102Z,30
2023-01-20T20:30:28.476Z,30
2023-01-20T20:59:07.383Z,31
2023-01-20T21:27:27.034Z,31
2023-01-20T21:55:43.846Z,25
2023-01-20T22:24:03.742Z,25
2023-01-20T22:52:18.926Z,25
2023-01-20T23:20:38.713Z,22
2023-01-20T23:48:52.954Z,20
